Cordova, Alabama
Current Conditions -  °F | °C
As of 9:55 AM on Friday 28 Nov 2014 (Local Time) from KJFX Reporting Station
Clear Clear  
Wind Chill: 37°   Ceiling: Unl
Heat Index: 41°   Visibility: 10mi
Dew Point: 25°   Wind: 6mph
Humidity: 53%   Direction: 150°SSE
Pressure: 30.46"   Gusts: NA
Location:  33.76°N, 87.18°W
Report Text: KJFX 281555Z AUTO 15005KT 10SM CLR 05/M04 A3046 RMK A02 P-128
Loading
Personal Weather Stations






























Interactive Weather Map New forecast layout! Learn more

10-Day Weather Forecast

Advertisements
Track Severe Weather on mobile